createdAt,value
2023-02-27T00:00:35.224Z,36.25
2023-02-27T00:01:35.244Z,41.81
2023-02-27T00:02:34.338Z,36.76
2023-02-27T00:03:34.353Z,44.01
2023-02-27T00:04:35.300Z,42.43
2023-02-27T00:05:34.325Z,41.04
2023-02-27T00:06:34.388Z,43.18
2023-02-27T00:07:35.377Z,40.75
2023-02-27T00:08:34.505Z,43.22
2023-02-27T00:09:35.456Z,41.48
2023-02-27T00:10:35.476Z,42.98
2023-02-27T00:11:35.508Z,42.74
2023-02-27T00:12:35.547Z,46.00
2023-02-27T00:13:35.576Z,42.26
2023-02-27T00:14:35.571Z,44.47
2023-02-27T00:15:35.607Z,42.94
2023-02-27T00:16:35.635Z,44.07
2023-02-27T00:17:35.666Z,40.87
2023-02-27T00:18:34.721Z,43.87
2023-02-27T00:19:35.703Z,42.04
2023-02-27T00:20:35.747Z,39.12
2023-02-27T00:21:36.845Z,38.22
2023-02-27T00:22:34.800Z,39.13
2023-02-27T00:23:35.828Z,38.70
2023-02-27T00:24:35.873Z,37.42
2023-02-27T00:25:35.898Z,40.92
2023-02-27T00:26:35.966Z,38.66
2023-02-27T00:27:35.968Z,41.57
2023-02-27T00:28:36.003Z,42.61
2023-02-27T00:29:36.044Z,37.96
2023-02-27T00:30:36.081Z,38.57
2023-02-27T00:31:36.092Z,46.44
2023-02-27T00:32:36.170Z,45.77
2023-02-27T00:33:36.172Z,40.66
2023-02-27T00:34:35.210Z,40.86
2023-02-27T00:35:36.234Z,41.98
2023-02-27T00:36:36.252Z,39.72
2023-02-27T00:37:36.294Z,44.48
2023-02-27T00:38:36.292Z,39.87
2023-02-27T00:39:36.414Z,39.06
2023-02-27T00:40:35.340Z,40.71
2023-02-27T00:41:36.372Z,38.63
2023-02-27T00:42:35.382Z,37.49
2023-02-27T00:43:35.438Z,39.22
2023-02-27T00:44:36.460Z,39.89
2023-02-27T00:45:36.467Z,43.57
2023-02-27T00:46:35.537Z,43.93
2023-02-27T00:47:36.562Z,37.08
2023-02-27T00:48:36.566Z,41.26
2023-02-27T00:49:36.596Z,42.08
2023-02-27T00:50:36.666Z,42.26
2023-02-27T00:51:36.656Z,40.21
2023-02-27T00:52:36.682Z,41.68
2023-02-27T00:53:36.719Z,41.44
2023-02-27T00:54:36.757Z,38.63
2023-02-27T00:55:36.772Z,37.07
2023-02-27T00:56:36.800Z,41.97
2023-02-27T00:57:36.882Z,38.48
2023-02-27T00:58:36.870Z,43.32
2023-02-27T00:59:36.907Z,42.56
2023-02-27T01:00:36.957Z,43.04
2023-02-27T01:01:36.954Z,40.07
2023-02-27T01:02:37.011Z,38.73
2023-02-27T01:03:37.028Z,38.47
2023-02-27T01:04:37.043Z,40.13
2023-02-27T01:05:36.077Z,36.51
2023-02-27T01:06:36.116Z,36.26
2023-02-27T01:07:37.102Z,35.71
2023-02-27T01:08:37.130Z,40.38
2023-02-27T01:09:37.151Z,36.76
2023-02-27T01:10:37.180Z,39.14
2023-02-27T01:11:37.212Z,36.37
2023-02-27T01:12:36.207Z,42.31
2023-02-27T01:13:37.228Z,34.99
2023-02-27T01:14:36.252Z,44.05
2023-02-27T01:15:37.259Z,41.65
2023-02-27T01:16:37.325Z,40.45
2023-02-27T01:17:37.313Z,37.40
2023-02-27T01:18:37.343Z,37.21
2023-02-27T01:19:37.371Z,38.81
2023-02-27T01:20:36.400Z,33.88
2023-02-27T01:21:37.457Z,35.31
2023-02-27T01:22:37.500Z,41.44
2023-02-27T01:23:37.484Z,34.72
2023-02-27T01:24:37.530Z,37.50
2023-02-27T01:25:37.560Z,31.05
2023-02-27T01:26:36.604Z,35.46
2023-02-27T01:27:37.665Z,36.19
2023-02-27T01:28:37.753Z,32.07
2023-02-27T01:29:37.703Z,31.77
2023-02-27T01:30:37.766Z,33.69
2023-02-27T01:31:37.853Z,34.02
2023-02-27T01:32:37.890Z,36.56
2023-02-27T01:33:37.846Z,34.68
2023-02-27T01:34:38.142Z,34.27
2023-02-27T01:35:37.894Z,37.71
2023-02-27T01:36:37.939Z,37.17
2023-02-27T01:37:38.002Z,35.03
2023-02-27T01:38:38.013Z,34.77
2023-02-27T01:39:38.057Z,36.74
2023-02-27T01:40:38.085Z,33.94
2023-02-27T01:41:38.139Z,34.95
2023-02-27T01:42:37.159Z,30.16
2023-02-27T01:43:38.161Z,33.31
2023-02-27T01:44:38.218Z,35.35
2023-02-27T01:45:37.286Z,35.29
2023-02-27T01:46:38.247Z,35.09
2023-02-27T01:47:38.285Z,34.25
2023-02-27T01:48:38.332Z,31.52
2023-02-27T01:49:38.389Z,36.09
2023-02-27T01:50:38.358Z,33.10
2023-02-27T01:51:37.512Z,32.31
2023-02-27T01:52:38.411Z,33.62
2023-02-27T01:53:38.488Z,33.30
2023-02-27T01:54:38.493Z,31.91
2023-02-27T01:55:38.520Z,33.92
2023-02-27T01:56:37.527Z,35.39
2023-02-27T01:57:38.549Z,29.13
2023-02-27T01:58:38.564Z,33.53
2023-02-27T01:59:38.608Z,35.29
2023-02-27T02:00:37.616Z,33.26
2023-02-27T02:01:38.738Z,32.93
2023-02-27T02:02:38.668Z,31.40
2023-02-27T02:03:38.711Z,31.95
2023-02-27T02:04:38.740Z,33.02
2023-02-27T02:05:38.754Z,29.05
2023-02-27T02:06:37.775Z,37.47
2023-02-27T02:07:38.824Z,33.06
2023-02-27T02:08:38.843Z,33.93
2023-02-27T02:09:38.908Z,36.56
2023-02-27T02:10:38.888Z,29.05
2023-02-27T02:11:38.914Z,33.83
2023-02-27T02:12:38.942Z,32.75
2023-02-27T02:13:38.968Z,33.57
2023-02-27T02:14:39.008Z,33.47
2023-02-27T02:15:39.007Z,30.99
2023-02-27T02:16:39.108Z,32.85
2023-02-27T02:17:38.067Z,34.49
2023-02-27T02:18:38.097Z,34.57
2023-02-27T02:19:39.149Z,36.77
2023-02-27T02:20:39.156Z,36.03
2023-02-27T02:21:39.180Z,33.75
2023-02-27T02:22:39.181Z,39.24
2023-02-27T02:23:39.221Z,37.08
2023-02-27T02:24:39.288Z,28.59
2023-02-27T02:25:39.309Z,27.67
2023-02-27T02:26:39.295Z,34.44
2023-02-27T02:27:39.310Z,33.60
2023-02-27T02:28:39.332Z,30.36
2023-02-27T02:29:39.590Z,33.14
2023-02-27T02:30:39.535Z,31.54
2023-02-27T02:31:39.570Z,31.12
2023-02-27T02:32:39.454Z,29.69
2023-02-27T02:33:38.467Z,32.38
2023-02-27T02:34:38.594Z,32.61
2023-02-27T02:35:38.534Z,30.06
2023-02-27T02:36:39.537Z,29.33
2023-02-27T02:37:39.579Z,33.37
2023-02-27T02:38:39.592Z,29.90
2023-02-27T02:39:39.671Z,34.92
2023-02-27T02:40:39.637Z,32.54
2023-02-27T02:41:39.684Z,31.33
2023-02-27T02:42:38.707Z,30.31
2023-02-27T02:43:39.724Z,30.45
2023-02-27T02:44:39.748Z,28.65
2023-02-27T02:45:39.809Z,25.72
2023-02-27T02:46:38.804Z,31.43
2023-02-27T02:47:39.812Z,30.05
2023-02-27T02:48:39.854Z,30.26
2023-02-27T02:49:39.882Z,32.88
2023-02-27T02:50:39.945Z,33.48
2023-02-27T02:51:39.964Z,31.05
2023-02-27T02:52:39.961Z,28.14
2023-02-27T02:53:39.973Z,29.61
2023-02-27T02:54:39.986Z,29.00
2023-02-27T02:55:40.034Z,30.68
2023-02-27T02:56:40.120Z,28.92
2023-02-27T02:57:40.108Z,29.77
2023-02-27T02:58:40.120Z,29.03
2023-02-27T02:59:39.161Z,29.16
2023-02-27T03:00:40.189Z,26.16
2023-02-27T03:01:40.223Z,27.56
2023-02-27T03:02:40.255Z,26.39
2023-02-27T03:03:40.266Z,27.63
2023-02-27T03:04:40.336Z,34.55
2023-02-27T03:05:40.290Z,29.07
2023-02-27T03:06:39.309Z,35.08
2023-02-27T03:07:40.434Z,31.96
2023-02-27T03:08:40.395Z,33.04
2023-02-27T03:09:40.400Z,30.06
2023-02-27T03:10:39.431Z,29.58
2023-02-27T03:11:40.446Z,36.69
2023-02-27T03:12:40.448Z,34.76
2023-02-27T03:13:40.513Z,30.20
2023-02-27T03:14:40.520Z,29.19
2023-02-27T03:15:39.618Z,30.45
2023-02-27T03:16:39.556Z,35.37
2023-02-27T03:17:40.583Z,28.89
2023-02-27T03:18:40.637Z,31.48
2023-02-27T03:19:40.622Z,28.06
2023-02-27T03:20:39.661Z,31.53
2023-02-27T03:21:40.668Z,30.76
2023-02-27T03:22:40.685Z,35.47
2023-02-27T03:23:40.724Z,31.94
2023-02-27T03:24:40.746Z,31.38
2023-02-27T03:25:40.792Z,26.64
2023-02-27T03:26:40.791Z,29.63
2023-02-27T03:27:40.830Z,29.50
2023-02-27T03:28:40.856Z,29.78
2023-02-27T03:29:40.906Z,36.89
2023-02-27T03:30:41.094Z,30.30
2023-02-27T03:31:41.162Z,28.80
2023-02-27T03:32:41.011Z,29.89
2023-02-27T03:33:41.040Z,27.07
2023-02-27T03:34:40.094Z,34.14
2023-02-27T03:35:41.138Z,30.50
2023-02-27T03:36:41.188Z,29.33
2023-02-27T03:37:41.226Z,30.48
2023-02-27T03:38:41.273Z,29.60
2023-02-27T03:39:41.312Z,31.99
2023-02-27T03:40:41.380Z,27.96
2023-02-27T03:41:40.401Z,30.83
2023-02-27T03:42:41.424Z,30.08
2023-02-27T03:43:40.470Z,27.86
2023-02-27T03:44:41.520Z,30.57
2023-02-27T03:45:41.606Z,32.30
2023-02-27T03:46:41.619Z,28.77
2023-02-27T03:47:41.641Z,32.18
2023-02-27T03:48:41.676Z,27.43
2023-02-27T03:49:41.747Z,28.58
2023-02-27T03:50:41.754Z,31.72
2023-02-27T03:51:41.774Z,28.35
2023-02-27T03:52:41.803Z,32.96
2023-02-27T03:53:41.842Z,30.09
2023-02-27T03:54:41.879Z,35.68
2023-02-27T03:55:41.942Z,33.49
2023-02-27T03:56:41.952Z,33.35
2023-02-27T03:57:41.988Z,34.38
2023-02-27T03:58:41.049Z,31.76
2023-02-27T03:59:41.088Z,33.82
2023-02-27T04:00:42.192Z,35.29
2023-02-27T04:01:42.277Z,30.77
2023-02-27T04:02:42.253Z,31.77
2023-02-27T04:03:41.273Z,29.26
2023-02-27T04:04:42.305Z,32.80
2023-02-27T04:05:41.361Z,28.68
2023-02-27T04:06:41.395Z,29.84
2023-02-27T04:07:41.441Z,32.94
2023-02-27T04:08:42.482Z,33.93
2023-02-27T04:09:42.514Z,33.13
2023-02-27T04:10:42.561Z,33.60
2023-02-27T04:11:42.598Z,34.94
2023-02-27T04:12:44.337Z,32.15
2023-02-27T04:13:41.625Z,32.36
2023-02-27T04:14:41.616Z,30.06
2023-02-27T04:15:41.609Z,33.26
2023-02-27T04:16:42.594Z,36.21
2023-02-27T04:17:42.638Z,30.52
2023-02-27T04:18:42.588Z,29.62
2023-02-27T04:19:41.595Z,30.71
2023-02-27T04:20:42.570Z,28.31
2023-02-27T04:21:42.577Z,32.90
2023-02-27T04:22:41.560Z,33.86
2023-02-27T04:23:42.556Z,35.12
2023-02-27T04:24:42.552Z,35.04
2023-02-27T04:25:42.539Z,32.25
2023-02-27T04:26:42.556Z,37.07
2023-02-27T04:27:42.536Z,39.12
2023-02-27T04:28:42.539Z,31.18
2023-02-27T04:29:42.526Z,33.68
2023-02-27T04:30:42.513Z,30.63
2023-02-27T04:31:42.739Z,29.23
2023-02-27T04:32:41.633Z,32.98
2023-02-27T04:33:41.512Z,30.38
2023-02-27T04:34:42.513Z,30.88
2023-02-27T04:35:42.483Z,31.19
2023-02-27T04:36:42.474Z,27.62
2023-02-27T04:37:42.490Z,31.81
2023-02-27T04:38:42.457Z,34.39
2023-02-27T04:39:42.462Z,34.18
2023-02-27T04:40:42.444Z,38.30
2023-02-27T04:41:42.454Z,33.86
2023-02-27T04:42:42.455Z,33.75
2023-02-27T04:43:42.428Z,32.42
2023-02-27T04:44:42.431Z,31.56
2023-02-27T04:45:41.582Z,31.77
2023-02-27T04:46:41.421Z,31.07
2023-02-27T04:47:41.402Z,29.96
2023-02-27T04:48:42.406Z,28.23
2023-02-27T04:49:41.469Z,25.64
2023-02-27T04:50:42.493Z,26.13
2023-02-27T04:51:42.534Z,30.02
2023-02-27T04:52:42.566Z,30.40
2023-02-27T04:53:42.604Z,28.40
2023-02-27T04:54:42.664Z,31.69
2023-02-27T04:55:42.758Z,34.80
2023-02-27T04:56:42.728Z,30.09
2023-02-27T04:57:42.774Z,29.25
2023-02-27T04:58:42.809Z,34.93
2023-02-27T04:59:42.851Z,30.30
2023-02-27T05:00:41.876Z,36.45
2023-02-27T05:01:42.951Z,32.94
2023-02-27T05:02:43.074Z,32.48
2023-02-27T05:03:42.016Z,28.28
2023-02-27T05:04:42.042Z,35.22
2023-02-27T05:05:43.106Z,30.24
2023-02-27T05:06:43.132Z,33.08
2023-02-27T05:07:42.180Z,30.38
2023-02-27T05:08:43.205Z,32.69
2023-02-27T05:09:43.254Z,31.71
2023-02-27T05:10:43.305Z,36.02
2023-02-27T05:11:43.333Z,30.97
2023-02-27T05:12:43.372Z,31.90
2023-02-27T05:13:43.418Z,35.38
2023-02-27T05:14:43.458Z,29.61
2023-02-27T05:15:43.516Z,31.01
2023-02-27T05:16:43.561Z,33.66
2023-02-27T05:17:43.642Z,34.16
2023-02-27T05:18:43.608Z,35.68
2023-02-27T05:19:43.663Z,31.02
2023-02-27T05:20:42.700Z,30.65
2023-02-27T05:21:43.772Z,32.58
2023-02-27T05:22:43.794Z,34.94
2023-02-27T05:23:43.826Z,30.08
2023-02-27T05:24:43.862Z,31.41
2023-02-27T05:25:43.898Z,32.32
2023-02-27T05:26:43.923Z,34.64
2023-02-27T05:27:42.962Z,36.90
2023-02-27T05:28:45.052Z,29.32
2023-02-27T05:29:44.027Z,31.82
2023-02-27T05:30:44.058Z,32.29
2023-02-27T05:31:44.213Z,34.99
2023-02-27T05:32:44.148Z,33.12
2023-02-27T05:33:43.201Z,30.79
2023-02-27T05:34:43.245Z,32.42
2023-02-27T05:35:44.330Z,38.31
2023-02-27T05:36:44.342Z,35.98
2023-02-27T05:37:44.456Z,32.72
2023-02-27T05:38:43.437Z,34.53
2023-02-27T05:39:44.482Z,32.67
2023-02-27T05:40:44.510Z,30.09
2023-02-27T05:41:44.576Z,32.69
2023-02-27T05:42:44.608Z,30.53
2023-02-27T05:43:43.660Z,31.53
2023-02-27T05:44:44.690Z,34.64
2023-02-27T05:45:44.921Z,28.65
2023-02-27T05:46:44.794Z,29.86
2023-02-27T05:47:44.839Z,27.30
2023-02-27T05:48:44.876Z,28.12
2023-02-27T05:49:44.904Z,31.66
2023-02-27T05:50:44.962Z,33.17
2023-02-27T05:51:45.003Z,27.19
2023-02-27T05:52:45.054Z,29.19
2023-02-27T05:53:45.113Z,31.93
2023-02-27T05:54:45.137Z,30.17
2023-02-27T05:55:45.196Z,27.38
2023-02-27T05:56:45.241Z,26.15
2023-02-27T05:57:45.275Z,32.40
2023-02-27T05:58:45.334Z,26.99
2023-02-27T05:59:45.354Z,25.60
2023-02-27T06:00:45.412Z,29.42
2023-02-27T06:01:46.293Z,32.20
2023-02-27T06:02:45.480Z,28.10
2023-02-27T06:03:45.628Z,30.71
2023-02-27T06:04:45.584Z,30.18
2023-02-27T06:05:44.689Z,34.85
2023-02-27T06:06:45.687Z,29.00
2023-02-27T06:07:45.699Z,32.93
2023-02-27T06:08:45.758Z,26.47
2023-02-27T06:09:45.824Z,31.68
2023-02-27T06:10:45.839Z,35.37
2023-02-27T06:11:45.874Z,29.42
2023-02-27T06:12:45.923Z,30.87
2023-02-27T06:13:45.976Z,30.68
2023-02-27T06:14:44.994Z,31.92
2023-02-27T06:15:46.037Z,32.08
2023-02-27T06:16:46.201Z,25.94
2023-02-27T06:17:46.099Z,29.89
2023-02-27T06:18:46.161Z,31.66
2023-02-27T06:19:46.196Z,28.26
2023-02-27T06:20:46.232Z,31.95
2023-02-27T06:21:46.297Z,32.02
2023-02-27T06:22:45.311Z,29.65
2023-02-27T06:23:46.356Z,28.74
2023-02-27T06:24:46.413Z,29.03
2023-02-27T06:25:46.490Z,32.88
2023-02-27T06:26:45.493Z,33.04
2023-02-27T06:27:46.555Z,29.46
2023-02-27T06:28:46.617Z,34.42
2023-02-27T06:29:45.650Z,33.38
2023-02-27T06:30:46.807Z,36.29
2023-02-27T06:31:46.789Z,37.49
2023-02-27T06:32:46.786Z,36.02
2023-02-27T06:33:45.856Z,37.40
2023-02-27T06:34:46.891Z,39.73
2023-02-27T06:35:46.953Z,39.67
2023-02-27T06:36:46.966Z,41.47
2023-02-27T06:37:47.010Z,38.99
2023-02-27T06:38:47.051Z,47.15
2023-02-27T06:39:47.081Z,46.95
2023-02-27T06:40:47.106Z,45.63
2023-02-27T06:41:47.169Z,44.80
2023-02-27T06:42:47.168Z,48.33
2023-02-27T06:43:46.192Z,60.73
2023-02-27T06:44:46.216Z,61.20
2023-02-27T06:45:47.252Z,66.86
2023-02-27T06:46:46.257Z,62.53
2023-02-27T06:47:47.296Z,61.11
2023-02-27T06:48:46.316Z,71.46
2023-02-27T06:49:46.324Z,71.60
2023-02-27T06:50:47.340Z,68.87
2023-02-27T06:51:47.316Z,78.20
2023-02-27T06:52:46.347Z,84.35
2023-02-27T06:53:47.342Z,91.40
2023-02-27T06:54:46.337Z,86.49
2023-02-27T06:55:46.382Z,85.66
2023-02-27T06:56:47.367Z,61.09
2023-02-27T06:57:47.418Z,59.34
2023-02-27T06:58:47.449Z,61.56
2023-02-27T06:59:47.480Z,73.94
2023-02-27T07:00:47.549Z,72.52
2023-02-27T07:01:48.249Z,58.08
2023-02-27T07:02:48.184Z,86.20
2023-02-27T07:03:46.941Z,108.77
2023-02-27T07:04:48.023Z,120.13
2023-02-27T07:05:46.835Z,122.85
2023-02-27T07:07:35.893Z,135.58
2023-02-27T07:07:47.875Z,136.26
2023-02-27T07:09:01.798Z,136.84
2023-02-27T07:09:47.999Z,136.08
2023-02-27T07:10:47.867Z,139.39
2023-02-27T07:11:47.842Z,146.46
2023-02-27T07:12:47.104Z,155.27
2023-02-27T07:13:47.841Z,163.94
2023-02-27T07:14:47.821Z,169.00
2023-02-27T07:15:46.929Z,176.01
2023-02-27T07:16:47.868Z,170.98
2023-02-27T07:17:47.799Z,188.18
2023-02-27T07:18:47.851Z,193.00
2023-02-27T07:19:47.790Z,180.46
2023-02-27T07:20:47.784Z,190.92
2023-02-27T07:21:47.767Z,191.50
2023-02-27T07:22:47.988Z,190.35
2023-02-27T07:23:46.831Z,192.40
2023-02-27T07:24:46.762Z,197.76
2023-02-27T07:25:47.858Z,201.32
2023-02-27T07:26:47.736Z,199.09
2023-02-27T07:27:47.748Z,204.79
2023-02-27T07:28:47.785Z,206.75
2023-02-27T07:29:47.733Z,201.41
2023-02-27T07:30:47.823Z,199.44
2023-02-27T07:31:47.712Z,201.18
2023-02-27T07:32:47.705Z,206.36
2023-02-27T07:33:47.702Z,208.11
2023-02-27T07:34:47.693Z,216.74
2023-02-27T07:35:47.747Z,209.80
2023-02-27T07:36:47.756Z,218.19
2023-02-27T07:37:46.671Z,216.67
2023-02-27T07:38:46.697Z,224.08
2023-02-27T07:39:47.656Z,231.08
2023-02-27T07:40:47.662Z,224.15
2023-02-27T07:41:47.633Z,210.42
2023-02-27T07:42:46.626Z,220.57
2023-02-27T07:43:47.624Z,224.39
2023-02-27T07:44:46.723Z,229.96
2023-02-27T07:45:46.678Z,231.17
2023-02-27T07:46:47.721Z,234.52
2023-02-27T07:47:46.624Z,238.38
2023-02-27T07:48:47.603Z,245.67
2023-02-27T07:49:47.590Z,243.47
2023-02-27T07:50:47.582Z,250.84
2023-02-27T07:51:46.574Z,240.61
2023-02-27T07:52:47.690Z,236.84
2023-02-27T07:53:47.715Z,240.26
2023-02-27T07:54:47.759Z,234.08
2023-02-27T07:55:47.838Z,232.59
2023-02-27T07:56:47.879Z,237.77
2023-02-27T07:57:48.405Z,239.14
2023-02-27T07:58:46.996Z,234.84
2023-02-27T07:59:47.213Z,239.97
2023-02-27T08:00:47.115Z,245.19
2023-02-27T08:01:48.125Z,246.81
2023-02-27T08:02:48.380Z,250.41
2023-02-27T08:03:48.402Z,246.08
2023-02-27T08:04:48.340Z,239.04
2023-02-27T08:05:48.350Z,239.76
2023-02-27T08:06:48.451Z,243.00
2023-02-27T08:07:48.445Z,244.48
2023-02-27T08:08:48.491Z,245.16
2023-02-27T08:09:47.527Z,242.20
2023-02-27T08:10:48.588Z,244.60
2023-02-27T08:11:49.344Z,240.68
2023-02-27T08:12:49.794Z,245.65
2023-02-27T08:14:00.197Z,249.03
2023-02-27T08:14:48.785Z,249.19
2023-02-27T08:15:47.699Z,249.66
2023-02-27T08:16:48.698Z,247.88
2023-02-27T08:17:48.762Z,245.93
2023-02-27T08:18:48.684Z,242.61
2023-02-27T08:19:48.661Z,246.83
2023-02-27T08:20:48.660Z,231.37
2023-02-27T08:21:48.654Z,242.00
2023-02-27T08:22:48.771Z,242.23
2023-02-27T08:23:48.633Z,233.83
2023-02-27T08:24:48.745Z,240.86
2023-02-27T08:25:48.621Z,239.80
2023-02-27T08:26:47.869Z,245.53
2023-02-27T08:27:47.610Z,238.20
2023-02-27T08:28:48.584Z,239.69
2023-02-27T08:29:48.623Z,241.58
2023-02-27T08:30:48.791Z,246.44
2023-02-27T08:31:48.831Z,241.65
2023-02-27T08:32:48.589Z,245.89
2023-02-27T08:33:55.307Z,241.77
2023-02-27T08:34:48.561Z,242.18
2023-02-27T08:35:48.612Z,238.23
2023-02-27T08:36:48.559Z,235.32
2023-02-27T08:37:48.546Z,246.71
2023-02-27T08:38:48.626Z,249.68
2023-02-27T08:39:48.670Z,250.00
2023-02-27T08:40:48.535Z,248.03
2023-02-27T08:41:47.526Z,246.22
2023-02-27T08:42:48.623Z,246.20
2023-02-27T08:43:48.692Z,247.69
2023-02-27T08:44:48.560Z,241.55
2023-02-27T08:45:48.506Z,243.84
2023-02-27T08:46:48.490Z,241.31
2023-02-27T08:47:48.699Z,246.40
2023-02-27T08:48:48.491Z,247.04
2023-02-27T08:49:48.512Z,254.99
2023-02-27T08:50:48.464Z,245.50
2023-02-27T08:51:48.484Z,247.15
2023-02-27T08:52:48.690Z,249.78
2023-02-27T08:53:48.465Z,247.06
2023-02-27T08:54:48.439Z,247.01
2023-02-27T08:55:48.460Z,250.37
2023-02-27T08:56:47.517Z,247.49
2023-02-27T08:57:48.459Z,247.73
2023-02-27T08:58:48.632Z,249.17
2023-02-27T08:59:48.727Z,248.18
2023-02-27T09:00:48.498Z,247.12
2023-02-27T09:01:48.565Z,245.78
2023-02-27T09:02:47.544Z,244.70
2023-02-27T09:03:48.654Z,246.17
2023-02-27T09:04:48.396Z,244.84
2023-02-27T09:05:48.383Z,249.02
2023-02-27T09:06:48.397Z,246.46
2023-02-27T09:07:48.402Z,245.89
2023-02-27T09:08:47.762Z,244.82
2023-02-27T09:09:50.019Z,245.59
2023-02-27T09:10:48.353Z,244.56
2023-02-27T09:11:48.346Z,245.20
2023-02-27T09:12:48.333Z,241.64
2023-02-27T09:13:48.303Z,238.24
2023-02-27T09:14:48.347Z,240.00
2023-02-27T09:15:48.307Z,243.30
2023-02-27T09:16:48.355Z,240.14
2023-02-27T09:17:48.357Z,239.75
2023-02-27T09:18:47.345Z,236.58
2023-02-27T09:19:47.300Z,235.97
2023-02-27T09:20:48.277Z,232.38
2023-02-27T09:21:48.611Z,230.68
2023-02-27T09:22:47.292Z,236.32
2023-02-27T09:23:48.253Z,233.69
2023-02-27T09:24:48.230Z,227.67
2023-02-27T09:25:48.260Z,227.83
2023-02-27T09:26:49.711Z,229.65
2023-02-27T09:27:48.410Z,238.59
2023-02-27T09:28:48.441Z,233.95
2023-02-27T09:29:48.438Z,230.15
2023-02-27T09:30:48.467Z,231.58
2023-02-27T09:31:48.680Z,228.93
2023-02-27T09:32:48.536Z,227.06
2023-02-27T09:33:48.515Z,232.04
2023-02-27T09:34:48.528Z,225.82
2023-02-27T09:35:47.577Z,228.57
2023-02-27T09:36:48.700Z,227.32
2023-02-27T09:37:48.615Z,221.39
2023-02-27T09:38:48.579Z,224.32
2023-02-27T09:39:48.620Z,218.28
2023-02-27T09:40:48.631Z,220.99
2023-02-27T09:41:47.656Z,219.89
2023-02-27T09:42:48.884Z,224.34
2023-02-27T09:43:48.720Z,229.23
2023-02-27T09:44:48.739Z,227.52
2023-02-27T09:45:48.783Z,233.27
2023-02-27T09:46:48.789Z,233.25
2023-02-27T09:47:48.823Z,230.59
2023-02-27T09:48:48.899Z,245.82
2023-02-27T09:49:48.834Z,252.56
2023-02-27T09:50:48.936Z,234.89
2023-02-27T09:51:48.973Z,233.95
2023-02-27T09:52:48.922Z,232.28
2023-02-27T09:53:48.955Z,225.68
2023-02-27T09:54:48.949Z,217.70
2023-02-27T09:55:48.959Z,222.27
2023-02-27T09:56:47.983Z,224.39
2023-02-27T09:57:49.239Z,223.65
2023-02-27T09:58:49.045Z,220.49
2023-02-27T09:59:48.057Z,218.08
2023-02-27T10:00:48.090Z,216.89
2023-02-27T10:01:48.139Z,214.51
2023-02-27T10:02:48.716Z,212.90
2023-02-27T10:03:48.212Z,209.42
2023-02-27T10:04:49.261Z,207.58
2023-02-27T10:05:48.310Z,204.63
2023-02-27T10:06:48.419Z,206.31
2023-02-27T10:07:50.463Z,205.51
2023-02-27T10:08:48.491Z,202.51
2023-02-27T10:09:49.545Z,200.17
2023-02-27T10:10:49.560Z,197.77
2023-02-27T10:11:48.628Z,193.39
2023-02-27T10:12:49.675Z,193.47
2023-02-27T10:13:49.737Z,194.68
2023-02-27T10:14:49.795Z,191.55
2023-02-27T10:15:48.850Z,190.57
2023-02-27T10:16:50.018Z,188.59
2023-02-27T10:17:49.978Z,183.96
2023-02-27T10:18:50.049Z,183.60
2023-02-27T10:19:50.079Z,183.49
2023-02-27T10:20:50.148Z,182.47
2023-02-27T10:21:50.265Z,180.30
2023-02-27T10:22:49.264Z,176.80
2023-02-27T10:23:50.299Z,172.76
2023-02-27T10:24:50.343Z,175.83
2023-02-27T10:25:50.424Z,173.59
2023-02-27T10:26:50.457Z,170.54
2023-02-27T10:27:49.434Z,167.18
2023-02-27T10:28:49.484Z,173.10
2023-02-27T10:29:50.521Z,164.82
2023-02-27T10:30:50.569Z,159.27
2023-02-27T10:31:50.586Z,157.46
2023-02-27T10:32:50.551Z,159.82
2023-02-27T10:33:50.564Z,160.31
2023-02-27T10:34:50.588Z,160.43
2023-02-27T10:35:50.654Z,157.46
2023-02-27T10:36:50.618Z,155.23
2023-02-27T10:37:49.631Z,152.56
2023-02-27T10:38:50.609Z,151.70
2023-02-27T10:39:50.613Z,152.39
2023-02-27T10:40:50.593Z,150.00
2023-02-27T10:41:50.611Z,145.73
2023-02-27T10:42:50.579Z,147.96
2023-02-27T10:43:50.592Z,149.11
2023-02-27T10:44:50.569Z,145.86
2023-02-27T10:45:49.640Z,143.18
2023-02-27T10:46:51.874Z,144.01
2023-02-27T10:47:49.678Z,142.61
2023-02-27T10:48:51.352Z,139.68
2023-02-27T10:49:50.574Z,133.05
2023-02-27T10:50:50.615Z,135.48
2023-02-27T10:51:51.187Z,138.79
2023-02-27T10:52:50.746Z,146.64
2023-02-27T10:53:51.124Z,148.91
2023-02-27T10:54:50.926Z,152.18
2023-02-27T10:55:50.732Z,155.80
2023-02-27T10:56:50.808Z,152.38
2023-02-27T10:57:50.752Z,160.26
2023-02-27T10:58:51.008Z,237.88
2023-02-27T10:59:50.811Z,275.73
2023-02-27T11:00:50.749Z,225.78
2023-02-27T11:01:50.783Z,228.67
2023-02-27T11:02:50.782Z,202.03
2023-02-27T11:03:50.808Z,175.97
2023-02-27T11:04:50.878Z,169.03
2023-02-27T11:05:50.926Z,146.29
2023-02-27T11:06:50.964Z,148.62
2023-02-27T11:07:50.097Z,147.31
2023-02-27T11:08:50.368Z,148.95
2023-02-27T11:09:50.273Z,149.97
2023-02-27T11:10:51.192Z,154.93
2023-02-27T11:11:51.396Z,151.42
2023-02-27T11:12:50.364Z,152.79
2023-02-27T11:13:51.429Z,146.98
2023-02-27T11:14:51.440Z,145.07
2023-02-27T11:15:51.548Z,141.29
2023-02-27T11:16:52.276Z,141.32
2023-02-27T11:17:51.600Z,142.45
2023-02-27T11:18:51.705Z,133.76
2023-02-27T11:19:51.818Z,139.50
2023-02-27T11:20:52.048Z,125.60
2023-02-27T11:21:51.813Z,129.05
2023-02-27T11:22:51.938Z,126.89
2023-02-27T11:23:51.945Z,126.88
2023-02-27T11:24:52.001Z,132.03
2023-02-27T11:25:51.058Z,130.10
2023-02-27T11:26:52.120Z,128.58
2023-02-27T11:27:52.328Z,125.99
2023-02-27T11:28:52.218Z,122.67
2023-02-27T11:29:52.321Z,112.18
2023-02-27T11:30:52.396Z,112.63
2023-02-27T11:31:51.454Z,109.28
2023-02-27T11:32:52.459Z,112.75
2023-02-27T11:33:51.525Z,119.95
2023-02-27T11:34:51.558Z,115.81
2023-02-27T11:35:58.236Z,112.80
2023-02-27T11:36:52.644Z,113.19
2023-02-27T11:37:52.629Z,114.73
2023-02-27T11:38:51.605Z,115.36
2023-02-27T11:39:52.600Z,117.87
2023-02-27T11:40:51.596Z,118.33
2023-02-27T11:41:51.577Z,126.01
2023-02-27T11:42:52.585Z,129.03
2023-02-27T11:43:52.762Z,125.91
2023-02-27T11:44:52.564Z,125.52
2023-02-27T11:46:04.732Z,125.69
2023-02-27T11:46:52.586Z,125.89
2023-02-27T11:47:51.530Z,125.92
2023-02-27T11:48:52.789Z,125.02
2023-02-27T11:49:52.503Z,123.57
2023-02-27T11:50:51.501Z,122.53
2023-02-27T11:51:51.501Z,120.93
2023-02-27T11:52:52.488Z,119.23
2023-02-27T11:53:52.510Z,117.57
2023-02-27T11:54:52.465Z,113.08
2023-02-27T11:55:52.477Z,111.74
2023-02-27T11:56:51.485Z,111.23
2023-02-27T11:57:52.475Z,112.84
2023-02-27T11:58:52.444Z,112.33
2023-02-27T11:59:52.442Z,111.31
2023-02-27T12:00:52.437Z,106.67
2023-02-27T12:01:52.456Z,102.30
2023-02-27T12:02:52.491Z,104.92
2023-02-27T12:03:52.471Z,103.26
2023-02-27T12:04:52.450Z,103.12
2023-02-27T12:05:52.412Z,99.94
2023-02-27T12:06:52.397Z,102.34
2023-02-27T12:07:54.275Z,99.97
2023-02-27T12:08:52.399Z,98.66
2023-02-27T12:09:52.380Z,101.06
2023-02-27T12:10:54.137Z,99.38
2023-02-27T12:11:52.379Z,99.56
2023-02-27T12:12:52.366Z,95.90
2023-02-27T12:13:52.362Z,98.12
2023-02-27T12:14:51.486Z,95.99
2023-02-27T12:15:51.390Z,94.01
2023-02-27T12:16:52.341Z,94.09
2023-02-27T12:17:52.338Z,95.83
2023-02-27T12:18:52.329Z,95.93
2023-02-27T12:20:51.317Z,88.24
2023-02-27T12:21:51.300Z,89.14
2023-02-27T12:22:52.308Z,86.99
2023-02-27T12:23:52.317Z,85.97
2023-02-27T12:24:52.309Z,82.93
2023-02-27T12:25:52.269Z,83.14
2023-02-27T12:26:52.269Z,82.81
2023-02-27T12:27:52.268Z,80.24
2023-02-27T12:28:51.254Z,85.66
2023-02-27T12:29:52.248Z,83.76
2023-02-27T12:30:51.230Z,84.24
2023-02-27T12:31:52.308Z,78.99
2023-02-27T12:32:52.222Z,77.12
2023-02-27T12:33:52.246Z,77.31
2023-02-27T12:34:51.214Z,73.86
2023-02-27T12:35:52.228Z,73.69
2023-02-27T12:36:52.260Z,75.73
2023-02-27T12:37:52.202Z,73.34
2023-02-27T12:38:52.181Z,74.37
2023-02-27T12:39:52.174Z,72.13
2023-02-27T12:40:52.183Z,74.30
2023-02-27T12:41:52.155Z,72.36
2023-02-27T12:42:52.143Z,70.73
2023-02-27T12:43:52.140Z,69.63